Terminal Aerodrome Forecast
Issued by NWS

Home | Current Version | Previous Version | Graphics & Text | Print | Product List | Glossary On
Versions: 1 2 3 4 5 6 7 8 9 10 11 12 13 14 15 16 17 18 19 20 21 22 23 24 25
000
FTUS45 KGGW 241100 RRA
TAFOLF
TAF
KOLF 241146Z 2412/2512 VRB04KT P6SM VCSH BKN080
     FM241800 VRB04KT 5SM -FZRASN OVC040
     FM250000 08007KT P6SM VCSH BKN100
     FM250600 VRB03KT P6SM VCSH OVC018=

USA.gov is the U.S. government's official web portal to all federal, state and local government web resources and services.